Terminal Aerodrome Forecast
Issued by NWS

Home | Current Version | Previous Version | Text Only | Print | Product List | Glossary On
Versions: 1 2 3 4 5 6 7 8 9 10 11 12 13 14 15 16 17 18 19 20 21
000
FTUS43 KSGF 220800 AAA
TAFJLN
TAF AMD
KJLN 220814Z 2208/2306 34005KT 1SM BR SKC
     FM220900 34005KT 3SM BR SKC
     FM221200 03007KT P6SM SKC
     FM230100 10005KT P6SM SKC=

USA.gov is the U.S. government's official web portal to all federal, state and local government web resources and services.